Time;durP1;ratioP1;P1;durP2;ratioP2;P2;SDS_P1;SDS_P2;PMS_P1;PMS_P2;Temp;Humidity;BMP_temperature;BMP_pressure;BME280_temperature;BME280_humidity;BME280_pressure;Samples;Min_cycle;Max_cycle;Signal;HPM_P1;HPM_P2
2021/10/24 00:02:36;;;;;;;12.90;7.80;;;;;;;6.17;88.02;101709.69;2804297;83;21082;-73
2021/10/24 00:06:37;;;;;;;18.60;8.00;;;;;;;6.18;87.99;101715.37;2855866;82;21046;-75
2021/10/24 00:10:39;;;;;;;12.33;6.10;;;;;;;6.20;87.71;101713.52;2798376;82;21305;-75
2021/10/24 00:14:41;;;;;;;11.18;5.87;;;;;;;6.16;87.77;101722.02;2852099;82;21077;-76
2021/10/24 00:18:43;;;;;;;10.35;7.08;;;;;;;6.03;88.46;101726.94;2810537;82;21050;-78
2021/10/24 00:22:45;;;;;;;12.23;7.00;;;;;;;5.83;90.12;101729.88;2851275;82;21036;-76
2021/10/24 00:26:46;;;;;;;20.88;8.00;;;;;;;5.65;91.91;101738.50;2814310;83;21032;-75
2021/10/24 00:30:49;;;;;;;11.75;6.08;;;;;;;5.56;92.58;101732.66;2840021;82;21003;-77
2021/10/24 00:34:51;;;;;;;12.28;6.42;;;;;;;5.60;92.78;101732.54;2801881;83;21123;-72
2021/10/24 00:38:52;;;;;;;14.38;7.25;;;;;;;5.54;92.86;101736.27;2850011;82;21010;-74
2021/10/24 00:42:54;;;;;;;14.03;6.10;;;;;;;5.66;91.98;101738.45;2856583;82;21371;-76
2021/10/24 00:46:59;;;;;;;9.05;5.78;;;;;;;5.65;92.06;101733.22;2856913;82;21077;-74
2021/10/24 00:51:00;;;;;;;12.82;7.47;;;;;;;5.72;90.60;101728.13;2858590;82;21066;-73
2021/10/24 00:55:02;;;;;;;11.78;7.08;;;;;;;5.84;90.28;101724.98;2848192;82;21056;-72
2021/10/24 00:59:05;;;;;;;20.45;8.10;;;;;;;5.97;88.68;101720.56;2848460;82;21313;-75
2021/10/24 01:03:06;;;;;;;11.50;6.80;;;;;;;6.06;87.72;101720.21;2813141;83;21019;-76
2021/10/24 01:07:08;;;;;;;14.35;7.03;;;;;;;6.06;86.96;101722.85;2866570;81;21081;-75
2021/10/24 01:11:10;;;;;;;16.70;7.65;;;;;;;6.03;86.43;101726.94;2821039;82;21074;-74
2021/10/24 01:15:12;;;;;;;14.75;9.78;;;;;;;5.97;85.37;101721.87;2811329;82;21043;-74
2021/10/24 01:19:14;;;;;;;17.48;9.40;;;;;;;5.97;84.79;101717.92;2844128;82;21036;-78
2021/10/24 01:23:16;;;;;;;17.07;7.30;;;;;;;5.95;84.86;101720.61;2831016;82;21014;-76
2021/10/24 01:27:18;;;;;;;10.82;5.85;;;;;;;5.79;82.84;101727.40;2810634;83;21754;-76
2021/10/24 01:31:19;;;;;;;10.35;6.17;;;;;;;5.66;84.80;101727.02;2814332;83;21109;-71
2021/10/24 01:35:21;;;;;;;14.68;6.95;;;;;;;5.65;85.05;101733.22;2831938;83;21161;-76
2021/10/24 01:39:22;;;;;;;10.72;6.30;;;;;;;5.68;84.26;101734.41;2837443;83;21030;-73
2021/10/24 01:43:26;;;;;;;10.48;5.90;;;;;;;5.69;84.17;101734.38;2842161;82;21090;-73
2021/10/24 01:47:28;;;;;;;14.23;5.00;;;;;;;5.66;83.98;101736.26;2842059;83;21634;-75
2021/10/24 01:51:30;;;;;;;12.63;6.22;;;;;;;5.60;84.47;101732.09;2823246;83;21099;-74
2021/10/24 01:55:32;;;;;;;26.57;14.40;;;;;;;5.59;85.27;101730.34;2817117;83;21053;-72
2021/10/24 01:59:33;;;;;;;33.92;14.83;;;;;;;5.55;84.34;101727.42;2808393;83;21064;-72
2021/10/24 02:03:36;;;;;;;33.98;14.73;;;;;;;5.56;84.54;101720.78;2808127;83;21121;-77
2021/10/24 02:07:38;;;;;;;22.10;9.55;;;;;;;5.60;84.25;101732.09;2865648;82;21115;-74
2021/10/24 02:11:41;;;;;;;25.57;12.40;;;;;;;5.54;83.28;101730.98;2843190;81;20993;-75
2021/10/24 02:15:42;;;;;;;22.00;10.10;;;;;;;5.51;82.66;101731.98;2844887;82;21084;-74
2021/10/24 02:19:44;;;;;;;21.70;8.40;;;;;;;5.46;82.28;101729.95;2853631;82;21015;-73
2021/10/24 02:23:46;;;;;;;12.13;6.85;;;;;;;5.45;83.06;101728.23;2846613;82;21055;-74
2021/10/24 02:27:48;;;;;;;13.20;5.80;;;;;;;5.44;83.07;101729.15;2849777;81;21126;-74
2021/10/24 02:31:49;;;;;;;12.75;7.62;;;;;;;5.40;82.93;101730.19;2852901;81;21134;-74
2021/10/24 02:35:51;;;;;;;14.90;6.53;;;;;;;5.34;82.64;101733.06;2839948;82;21145;-71
2021/10/24 02:39:53;;;;;;;11.97;6.35;;;;;;;5.34;82.79;101733.06;2851896;82;21024;-76
2021/10/24 02:43:54;;;;;;;15.20;6.53;;;;;;;5.34;82.21;101734.38;2858475;81;21079;-76
2021/10/24 02:47:56;;;;;;;10.10;5.30;;;;;;;5.28;82.11;101740.26;2854371;81;21032;-72
2021/10/24 02:51:58;;;;;;;8.78;3.70;;;;;;;5.27;82.88;101741.18;2796986;83;21026;-72
2021/10/24 02:55:59;;;;;;;7.45;5.47;;;;;;;5.26;82.57;101742.57;2852570;81;21081;-73
2021/10/24 03:00:03;;;;;;;8.08;5.70;;;;;;;5.19;82.35;101741.92;2841563;81;21046;-72
2021/10/24 03:04:05;;;;;;;13.40;5.00;;;;;;;5.13;82.92;101743.00;2852023;81;21087;-75
2021/10/24 03:08:07;;;;;;;20.95;9.23;;;;;;;5.17;82.99;101742.88;2845682;81;21015;-76
2021/10/24 03:12:08;;;;;;;15.65;7.85;;;;;;;5.15;83.60;101741.16;2838521;81;21022;-73
2021/10/24 03:16:10;;;;;;;18.45;9.63;;;;;;;5.21;83.27;101736.58;2849599;81;21023;-71
2021/10/24 03:20:12;;;;;;;20.62;10.98;;;;;;;5.14;82.68;101741.23;2838427;81;20996;-73
2021/10/24 03:24:13;;;;;;;18.92;13.25;;;;;;;5.13;82.96;101746.11;2845805;82;21081;-73
2021/10/24 03:28:16;;;;;;;19.02;12.03;;;;;;;5.14;82.76;101743.88;2841632;81;21043;-75
2021/10/24 03:32:17;;;;;;;19.70;9.50;;;;;;;5.13;82.88;101750.06;2831713;81;21047;-73
2021/10/24 03:36:19;;;;;;;13.15;8.13;;;;;;;5.13;83.51;101744.80;2851796;81;21025;-72
2021/10/24 03:40:21;;;;;;;30.60;8.25;;;;;;;5.12;83.16;101748.34;2844420;82;21040;-75
2021/10/24 03:44:22;;;;;;;9.35;7.30;;;;;;;5.12;83.16;101750.98;2830863;82;21011;-71
2021/10/24 03:48:24;;;;;;;9.25;7.33;;;;;;;5.11;83.08;101743.95;2853864;81;20992;-74
2021/10/24 03:52:26;;;;;;;15.55;7.72;;;;;;;5.08;82.57;101749.34;2840669;82;21032;-74
2021/10/24 03:56:27;;;;;;;13.30;7.20;;;;;;;5.10;82.31;101751.47;2843106;81;21609;-71
2021/10/24 04:00:30;;;;;;;8.85;4.78;;;;;;;5.03;82.27;101757.45;2833058;81;21021;-71
2021/10/24 04:04:31;;;;;;;8.80;5.30;;;;;;;5.03;81.79;101756.13;2853146;81;21028;-72
2021/10/24 04:08:33;;;;;;;10.05;4.40;;;;;;;4.96;81.67;101754.16;2851021;81;21157;-76
2021/10/24 04:12:34;;;;;;;11.63;5.65;;;;;;;4.96;82.30;101751.95;2849883;82;21113;-73
2021/10/24 04:16:36;;;;;;;9.58;5.62;;;;;;;4.93;82.08;101748.99;2845115;81;21039;-73
2021/10/24 04:20:38;;;;;;;4.95;3.35;;;;;;;4.90;81.85;101756.98;2853067;80;21047;-72
2021/10/24 04:24:40;;;;;;;6.35;4.08;;;;;;;4.86;82.07;101751.41;2839802;81;21690;-73
2021/10/24 04:28:41;;;;;;;7.83;4.83;;;;;;;4.83;82.41;101760.31;2842206;81;21100;-71
2021/10/24 04:32:43;;;;;;;11.73;4.37;;;;;;;4.85;82.18;101757.61;2835982;81;21051;-74
2021/10/24 04:36:45;;;;;;;5.97;3.95;;;;;;;4.91;81.92;101752.11;2855279;82;21039;-73
2021/10/24 04:40:47;;;;;;;8.23;4.85;;;;;;;4.89;81.80;101751.78;2857172;81;20999;-72
2021/10/24 04:44:48;;;;;;;13.45;6.72;;;;;;;4.85;81.29;101756.29;2848125;81;21086;-73
2021/10/24 04:48:50;;;;;;;8.18;6.22;;;;;;;4.81;81.63;101757.31;2833576;82;21141;-76
2021/10/24 04:52:51;;;;;;;15.45;5.67;;;;;;;4.76;81.36;101761.41;2850213;81;21079;-73
2021/10/24 04:56:55;;;;;;;7.70;5.78;;;;;;;4.66;82.01;101764.81;2840518;82;21019;-72
2021/10/24 05:00:57;;;;;;;11.20;5.15;;;;;;;4.61;82.49;101765.44;2845060;82;21050;-73
2021/10/24 05:04:58;;;;;;;13.30;7.15;;;;;;;4.59;82.79;101769.90;2851999;82;21065;-73
2021/10/24 05:09:00;;;;;;;15.38;9.08;;;;;;;4.63;83.21;101771.52;2844736;81;21031;-73
2021/10/24 05:13:02;;;;;;;18.50;9.55;;;;;;;4.70;82.62;101766.91;2856807;81;21086;-74
2021/10/24 05:17:04;;;;;;;21.05;6.90;;;;;;;4.75;82.88;101765.44;2839981;81;21113;-69
2021/10/24 05:21:06;;;;;;;14.23;7.92;;;;;;;4.79;82.40;101774.96;2855429;81;21047;-77
2021/10/24 05:25:08;;;;;;;12.63;7.97;;;;;;;4.75;81.84;101781.26;2850992;82;21051;-75
2021/10/24 05:29:10;;;;;;;9.95;7.12;;;;;;;4.67;81.85;101781.51;2859130;81;21068;-76
2021/10/24 05:33:12;;;;;;;9.98;7.65;;;;;;;4.64;81.81;101773.23;2806732;83;21066;-75
2021/10/24 05:37:13;;;;;;;13.50;6.85;;;;;;;4.66;81.96;101775.36;2855097;81;21031;-73
2021/10/24 05:41:15;;;;;;;17.27;10.82;;;;;;;4.67;82.19;101779.72;2859475;81;21122;-75
2021/10/24 05:45:18;;;;;;;20.05;11.45;;;;;;;4.68;82.87;101784.08;2852096;81;21145;-76
2021/10/24 05:49:21;;;;;;;13.20;8.45;;;;;;;4.74;83.19;101787.45;2865035;81;21121;-73
2021/10/24 05:53:22;;;;;;;10.05;9.00;;;;;;;4.77;82.23;101783.38;2827292;81;21086;-77
2021/10/24 05:57:24;;;;;;;13.20;7.42;;;;;;;4.75;83.17;101798.39;2870179;81;21070;-75
2021/10/24 06:01:26;;;;;;;43.28;18.60;;;;;;;4.63;82.08;101787.33;2859111;81;21027;-75
2021/10/24 06:05:28;;;;;;;51.83;22.65;;;;;;;4.54;82.70;101794.23;2857930;81;21144;-76
2021/10/24 06:13:50;;;;;;;29.30;13.32;;;;;;;4.73;83.24;101800.22;2867665;81;20984;-72
2021/10/24 06:17:53;;;;;;;16.70;8.65;;;;;;;4.76;82.24;101810.19;2859545;81;21044;-75
2021/10/24 06:21:54;;;;;;;17.17;7.45;;;;;;;4.68;85.53;101815.70;2840374;81;21096;-75
2021/10/24 06:25:56;;;;;;;14.93;7.53;;;;;;;4.75;86.12;101822.12;2840398;81;21045;-77
2021/10/24 06:29:58;;;;;;;14.73;7.53;;;;;;;4.67;87.63;101831.13;2797077;83;21078;-74
2021/10/24 06:33:59;;;;;;;19.70;9.50;;;;;;;4.76;87.14;101833.91;2797446;83;21078;-74
2021/10/24 06:38:01;;;;;;;36.80;11.90;;;;;;;4.90;87.04;101841.84;2863365;81;21050;-76
2021/10/24 06:42:03;;;;;;;17.60;9.85;;;;;;;5.09;87.12;101846.91;2859960;80;21172;-78
2021/10/24 06:46:05;;;;;;;30.35;13.58;;;;;;;5.33;86.85;101847.45;2808771;83;21104;-76
2021/10/24 06:50:10;;;;;;;15.75;8.95;;;;;;;5.42;86.25;101841.83;2753211;84;21072;-76
2021/10/24 06:54:11;;;;;;;11.50;10.08;;;;;;;5.21;87.30;101844.74;2790568;83;21128;-74
2021/10/24 06:58:13;;;;;;;17.48;9.28;;;;;;;5.21;87.51;101848.26;2767103;84;21128;-75
2021/10/24 07:02:17;;;;;;;28.38;12.40;;;;;;;5.18;88.95;101852.33;2761617;84;21012;-79
2021/10/24 07:06:23;;;;;;;16.07;11.38;;;;;;;5.24;89.07;101850.78;2789819;83;21053;-80
2021/10/24 07:10:22;;;;;;;17.45;10.10;;;;;;;5.42;89.48;101858.55;2788693;83;21081;-75
2021/10/24 07:14:23;;;;;;;15.28;10.78;;;;;;;5.64;88.98;101858.22;2808841;82;21046;-78
2021/10/24 07:18:25;;;;;;;17.57;11.22;;;;;;;5.94;88.78;101855.39;2789761;83;21163;-75
2021/10/24 07:22:26;;;;;;;19.45;11.93;;;;;;;6.30;88.24;101856.27;2792717;82;21070;-75
2021/10/24 07:26:28;;;;;;;17.62;10.23;;;;;;;6.59;87.27;101854.73;2775590;83;21030;-77
2021/10/24 07:30:30;;;;;;;14.80;8.50;;;;;;;6.81;86.70;101853.38;2806113;83;21084;-79
2021/10/24 07:34:31;;;;;;;15.23;10.68;;;;;;;6.89;86.10;101862.33;2858300;81;21062;-75
2021/10/24 07:38:34;;;;;;;17.48;11.43;;;;;;;7.10;86.00;101857.46;2892212;80;21062;-77
2021/10/24 07:42:39;;;;;;;20.57;15.90;;;;;;;7.29;87.20;101858.88;2849217;81;21054;-75
2021/10/24 07:46:40;;;;;;;16.52;11.78;;;;;;;7.61;86.21;101858.85;2845880;82;21097;-76
2021/10/24 07:50:43;;;;;;;13.18;9.65;;;;;;;7.93;85.72;101868.48;2790202;82;21009;-79
2021/10/24 07:54:46;;;;;;;13.88;9.80;;;;;;;7.92;86.02;101870.73;2741603;85;21006;-79
2021/10/24 07:58:48;;;;;;;19.48;13.58;;;;;;;7.93;87.18;101871.13;2869411;81;21140;-78
2021/10/24 08:02:51;;;;;;;25.37;14.10;;;;;;;8.11;87.33;101862.34;2857235;80;21071;-75
2021/10/24 08:06:52;;;;;;;10.35;6.42;;;;;;;8.39;87.06;101873.45;2848972;81;21074;-76
2021/10/24 08:10:54;;;;;;;12.93;7.28;;;;;;;8.81;85.31;101868.81;2852291;80;21117;-80
2021/10/24 08:14:58;;;;;;;22.50;9.55;;;;;;;9.11;83.35;101862.92;2843711;80;21011;-81
2021/10/24 08:19:00;;;;;;;19.00;11.48;;;;;;;9.45;81.89;101860.33;2853685;81;21527;-82
2021/10/24 08:23:02;;;;;;;11.43;8.20;;;;;;;9.70;80.46;101866.06;2852382;81;21113;-78
2021/10/24 08:27:04;;;;;;;23.47;12.98;;;;;;;10.02;79.63;101862.61;2849672;81;21060;-79
2021/10/24 08:31:06;;;;;;;14.90;7.28;;;;;;;10.23;77.30;101865.91;2850748;81;21023;-79
2021/10/24 08:35:08;;;;;;;55.08;36.05;;;;;;;10.30;75.54;101857.13;2852661;80;21038;-74
2021/10/24 08:39:10;;;;;;;40.28;25.05;;;;;;;10.42;75.22;101863.59;2857272;81;21011;-74
2021/10/24 08:43:16;;;;;;;18.27;11.12;;;;;;;10.44;75.40;101860.37;2865325;81;21050;-74
2021/10/24 08:47:18;;;;;;;14.53;10.32;;;;;;;10.60;74.69;101859.02;2856645;82;21058;-75
2021/10/24 08:51:20;;;;;;;9.93;7.12;;;;;;;10.80;74.58;101857.89;2855207;81;21148;-75
2021/10/24 08:55:21;;;;;;;9.13;6.50;;;;;;;10.85;73.57;101853.64;2852914;81;21071;-74
2021/10/24 08:59:23;;;;;;;9.45;6.00;;;;;;;10.91;73.92;101849.77;2855170;81;21002;-74
2021/10/24 09:03:25;;;;;;;11.80;6.97;;;;;;;10.92;72.99;101846.16;2866918;81;21082;-75
2021/10/24 09:07:31;;;;;;;20.27;7.72;;;;;;;11.12;72.27;101848.95;2865344;81;21079;-75
2021/10/24 09:11:33;;;;;;;13.90;7.20;;;;;;;11.14;71.30;101844.39;2849638;82;21103;-77
2021/10/24 09:16:04;;;;;;;15.20;9.23;;;;;;;11.25;70.80;101845.08;2847096;81;21134;-76
2021/10/24 09:20:07;;;;;;;19.07;10.35;;;;;;;11.38;71.92;101835.88;2841596;81;21047;-77
2021/10/24 09:24:12;;;;;;;33.35;21.07;;;;;;;11.57;71.48;101844.95;2816609;82;21028;-75
2021/10/24 09:28:20;;;;;;;9.43;6.75;;;;;;;11.74;70.95;101829.73;2853152;81;21063;-80
2021/10/24 09:32:30;;;;;;;29.95;17.98;;;;;;;11.92;69.71;101827.70;2785052;83;21071;-76
2021/10/24 09:36:31;;;;;;;19.73;10.40;;;;;;;11.98;68.90;101827.31;2806031;83;21062;-77
2021/10/24 09:40:37;;;;;;;12.33;6.50;;;;;;;12.18;68.88;101829.22;2776009;83;21102;-74
2021/10/24 09:45:09;;;;;;;8.73;5.25;;;;;;;12.35;69.21;101830.32;2799822;82;21008;-76
2021/10/24 09:49:13;;;;;;;8.55;5.12;;;;;;;12.45;66.80;101827.07;2852691;81;21590;-75
2021/10/24 09:53:26;;;;;;;19.82;10.80;;;;;;;12.61;66.94;101810.89;2847198;81;20972;-75
2021/10/24 09:57:28;;;;;;;22.58;7.33;;;;;;;12.73;66.02;101806.08;2793261;83;21094;-77
2021/10/24 10:01:30;;;;;;;13.90;10.35;;;;;;;12.82;65.27;101802.78;2820225;80;21062;-75
2021/10/24 10:05:34;;;;;;;13.68;9.93;;;;;;;12.80;66.41;101799.36;2796749;82;21143;-76
2021/10/24 10:09:35;;;;;;;27.85;10.40;;;;;;;13.04;66.51;101804.48;2796281;82;21059;-76
2021/10/24 10:13:41;;;;;;;17.27;11.03;;;;;;;12.83;65.58;101794.30;2786216;83;21112;-77
2021/10/24 10:17:43;;;;;;;19.45;13.03;;;;;;;12.73;65.89;101798.07;2846733;81;21086;-72
2021/10/24 10:21:47;;;;;;;17.02;9.30;;;;;;;12.80;64.87;101799.85;2848645;82;21047;-73
2021/10/24 10:25:50;;;;;;;19.75;10.85;;;;;;;12.79;64.11;101796.81;2834342;81;21470;-74
2021/10/24 10:29:59;;;;;;;11.95;7.20;;;;;;;12.76;63.53;101792.98;2854730;81;21435;-74
2021/10/24 10:34:10;;;;;;;15.13;5.58;;;;;;;12.75;63.81;101793.94;2864877;81;21069;-77
2021/10/24 10:38:34;;;;;;;10.90;7.78;;;;;;;12.86;63.32;101791.42;2838826;81;21013;-76
2021/10/24 10:42:45;;;;;;;14.35;7.12;;;;;;;12.90;62.62;101782.23;2837916;81;21059;-76
2021/10/24 10:46:47;;;;;;;8.65;4.28;;;;;;;12.92;62.19;101780.31;2826561;81;21565;-76
2021/10/24 10:51:16;;;;;;;9.18;4.92;;;;;;;12.91;61.59;101771.92;2853978;81;21071;-74
2021/10/24 10:55:17;;;;;;;9.53;4.20;;;;;;;12.93;60.97;101770.00;2855013;81;21094;-75
2021/10/24 10:59:35;;;;;;;9.38;4.22;;;;;;;13.09;61.83;101760.94;2847168;80;21065;-76
2021/10/24 11:04:12;;;;;;;11.95;6.75;;;;;;;13.03;60.58;101761.38;2842591;81;21117;-77
2021/10/24 11:08:48;;;;;;;10.95;6.00;;;;;;;13.00;60.62;101753.95;2815835;83;21135;-75
2021/10/24 11:12:50;;;;;;;9.38;4.87;;;;;;;13.23;60.77;101758.17;2823244;83;21087;-72
2021/10/24 11:16:59;;;;;;;6.22;4.17;;;;;;;13.37;60.50;101750.52;2823517;83;21034;-71
2021/10/24 11:21:01;;;;;;;7.70;4.50;;;;;;;13.43;60.29;101743.92;2815286;83;21589;-71
2021/10/24 11:25:02;;;;;;;13.80;7.10;;;;;;;13.35;59.58;101744.89;2855436;81;21079;-72
2021/10/24 11:29:05;;;;;;;13.40;5.90;;;;;;;13.41;59.53;101747.16;2843018;81;21142;-72
2021/10/24 11:33:08;;;;;;;7.03;5.55;;;;;;;13.35;59.83;101728.39;2840776;81;21086;-72
2021/10/24 11:37:09;;;;;;;15.75;9.98;;;;;;;13.35;58.85;101728.86;2792318;82;21486;-72
2021/10/24 11:41:20;;;;;;;14.45;10.25;;;;;;;13.35;58.41;101718.17;2809598;82;21047;-72
2021/10/24 11:45:24;;;;;;;10.30;6.97;;;;;;;13.50;60.31;101719.79;2816014;83;21052;-73
2021/10/24 11:49:25;;;;;;;10.95;7.70;;;;;;;13.68;59.46;101716.75;2817796;83;21079;-72
2021/10/24 11:53:32;;;;;;;5.40;3.33;;;;;;;13.81;57.91;101711.37;2818873;83;21622;-73
2021/10/24 11:57:47;;;;;;;5.62;2.87;;;;;;;13.69;57.13;101700.62;2817712;83;21124;-71
2021/10/24 12:01:38;;;;;;;14.05;6.28;;;;;;;13.42;56.90;101703.42;2816218;83;30988;-72
2021/10/24 12:05:42;;;;;;;7.22;4.00;;;;;;;13.31;55.68;101689.96;2826008;83;21071;-73
2021/10/24 12:09:50;;;;;;;5.00;3.92;;;;;;;13.18;54.42;101692.66;2837927;83;21116;-71
2021/10/24 12:13:52;;;;;;;5.50;3.80;;;;;;;13.27;55.25;101691.52;2812471;83;21089;-74
2021/10/24 12:17:54;;;;;;;17.27;6.00;;;;;;;13.28;56.22;101680.36;2806091;83;20959;-74
2021/10/24 12:22:08;;;;;;;19.50;8.65;;;;;;;13.47;56.36;101677.74;2781706;83;21109;-73
2021/10/24 12:26:09;;;;;;;16.95;11.08;;;;;;;13.50;55.72;101677.02;2793574;83;21585;-73
2021/10/24 12:30:19;;;;;;;10.82;5.80;;;;;;;13.66;55.34;101670.09;2831912;82;21073;-72
2021/10/24 12:34:20;;;;;;;28.25;16.75;;;;;;;13.74;55.02;101655.30;2760773;84;21020;-71
2021/10/24 12:38:23;;;;;;;17.35;10.55;;;;;;;13.81;54.56;101649.39;2846048;81;21081;-71
2021/10/24 12:42:25;;;;;;;20.15;10.18;;;;;;;13.78;55.19;101642.93;2808747;83;21059;-72
2021/10/24 12:46:34;;;;;;;15.25;5.28;;;;;;;13.83;55.94;101639.42;2821971;83;21087;-72
2021/10/24 12:50:37;;;;;;;8.25;4.33;;;;;;;13.83;54.25;101630.06;2812475;83;21022;-74
2021/10/24 12:54:40;;;;;;;8.43;3.58;;;;;;;13.83;54.06;101620.70;2809910;83;21068;-76
2021/10/24 12:58:42;;;;;;;4.42;3.05;;;;;;;13.82;54.21;101616.79;2807903;83;21076;-72
2021/10/24 13:02:43;;;;;;;6.80;5.15;;;;;;;13.67;53.40;101614.78;2782634;84;21023;-72
2021/10/24 13:06:45;;;;;;;6.17;3.95;;;;;;;13.58;54.49;101603.45;2753100;84;21088;-74
2021/10/24 13:10:47;;;;;;;21.35;10.48;;;;;;;13.75;54.24;101595.00;2808293;83;21069;-74
2021/10/24 13:14:48;;;;;;;32.98;15.95;;;;;;;13.71;54.82;101588.18;2842372;81;21031;-74
2021/10/24 13:18:50;;;;;;;18.73;10.38;;;;;;;13.71;54.70;101586.37;2827940;81;21073;-73
2021/10/24 13:22:55;;;;;;;8.03;5.10;;;;;;;13.75;54.03;101574.94;2853187;81;21308;-70
2021/10/24 13:26:57;;;;;;;20.10;11.10;;;;;;;13.68;53.43;101573.70;2855046;81;21035;-70
2021/10/24 13:30:58;;;;;;;10.40;7.40;;;;;;;13.65;53.67;101572.10;2842735;81;21047;-74
2021/10/24 13:35:01;;;;;;;8.95;4.28;;;;;;;13.61;54.34;101561.78;2822318;82;21039;-77
2021/10/24 13:39:04;;;;;;;8.18;5.28;;;;;;;13.43;53.53;101554.16;2789474;83;21049;-78
2021/10/24 13:43:06;;;;;;;10.00;5.08;;;;;;;13.22;53.24;101553.40;2789311;83;20994;-75
2021/10/24 13:47:08;;;;;;;15.25;7.20;;;;;;;13.19;52.58;101544.28;2802671;83;21006;-78
2021/10/24 13:51:09;;;;;;;17.35;7.58;;;;;;;13.29;53.50;101541.78;2818165;82;21076;-78
2021/10/24 13:55:11;;;;;;;21.77;9.03;;;;;;;13.42;53.25;101533.20;2792736;83;21076;-77
2021/10/24 13:59:12;;;;;;;17.92;7.67;;;;;;;13.48;53.44;101535.95;2808473;83;20993;-74
2021/10/24 14:03:14;;;;;;;14.40;6.75;;;;;;;13.55;52.78;101531.00;2818096;83;21086;-75
2021/10/24 14:07:15;;;;;;;6.12;3.95;;;;;;;13.44;53.47;101525.13;2801747;83;21035;-79
2021/10/24 14:11:19;;;;;;;7.08;4.08;;;;;;;13.40;54.29;101522.28;2801011;82;21071;-76
2021/10/24 14:15:21;;;;;;;15.20;4.28;;;;;;;13.40;53.58;101520.95;2823232;82;21074;-75
2021/10/24 14:19:22;;;;;;;8.95;3.27;;;;;;;13.42;53.54;101523.02;2790561;83;21028;-76
2021/10/24 14:23:24;;;;;;;8.60;4.28;;;;;;;13.17;53.01;101522.17;2794004;83;21106;-77
2021/10/24 14:27:26;;;;;;;6.55;4.47;;;;;;;13.13;53.64;101522.86;2801583;83;21041;-77
2021/10/24 14:31:28;;;;;;;6.72;4.60;;;;;;;13.09;55.09;101520.05;2791103;83;21139;-78
2021/10/24 14:35:31;;;;;;;13.30;4.03;;;;;;;13.07;56.13;101513.97;2802306;83;21044;-77
2021/10/24 14:39:33;;;;;;;7.67;4.05;;;;;;;12.86;57.61;101511.03;2798916;83;21047;-77
2021/10/24 14:43:35;;;;;;;5.72;3.70;;;;;;;12.79;57.18;101511.11;2794301;83;21084;-78
2021/10/24 14:47:37;;;;;;;8.10;4.37;;;;;;;12.66;58.45;101497.30;2789788;83;21016;-73
2021/10/24 14:51:39;;;;;;;10.15;7.72;;;;;;;12.55;58.41;101500.73;2836083;83;21062;-77
2021/10/24 14:55:40;;;;;;;15.68;7.15;;;;;;;12.35;59.05;101491.45;2837938;83;21054;-77
2021/10/24 14:59:42;;;;;;;12.20;4.55;;;;;;;12.26;59.34;101488.11;2816136;83;21104;-77
2021/10/24 15:03:44;;;;;;;10.38;3.83;;;;;;;12.30;59.14;101482.92;2807210;83;21045;-77
2021/10/24 15:07:45;;;;;;;10.15;4.90;;;;;;;12.23;59.75;101481.16;2813268;83;21696;-75
2021/10/24 15:11:47;;;;;;;5.80;4.83;;;;;;;12.12;59.68;101477.08;2802530;83;21009;-75
2021/10/24 15:16:01;;;;;;;9.05;5.22;;;;;;;11.94;60.93;101473.36;2801473;83;21143;-76
2021/10/24 15:24:02;;;;;;;10.15;5.70;;;;;;;11.72;61.82;101475.29;2793429;83;21114;-75
2021/10/24 15:28:04;;;;;;;15.13;10.45;;;;;;;11.55;62.42;101470.61;2812093;83;21064;-76
2021/10/24 15:32:08;;;;;;;9.25;6.67;;;;;;;11.41;62.89;101464.05;2826844;83;21039;-76
2021/10/24 15:36:09;;;;;;;12.80;6.40;;;;;;;11.18;64.08;101465.06;2860828;82;21028;-77
2021/10/24 15:40:12;;;;;;;11.83;6.42;;;;;;;10.98;64.83;101466.38;2795453;83;21050;-76
2021/10/24 15:44:14;;;;;;;13.70;7.58;;;;;;;10.71;66.07;101456.57;2789624;84;21055;-75
2021/10/24 15:48:18;;;;;;;10.32;7.12;;;;;;;10.50;66.72;101460.10;2802687;83;21114;-77
2021/10/24 15:52:19;;;;;;;9.63;6.20;;;;;;;10.23;68.01;101464.84;2826440;83;21083;-76
2021/10/24 15:56:21;;;;;;;14.50;7.05;;;;;;;10.06;68.50;101465.39;2831200;83;21086;-76
2021/10/24 16:00:23;;;;;;;19.75;7.35;;;;;;;9.88;69.15;101458.53;2797430;83;21082;-76
2021/10/24 16:04:24;;;;;;;11.63;5.30;;;;;;;9.75;69.65;101463.73;2792024;83;21082;-76
2021/10/24 16:08:26;;;;;;;15.35;7.67;;;;;;;9.62;70.10;101462.25;2792021;83;21057;-78
2021/10/24 16:12:28;;;;;;;13.32;8.50;;;;;;;9.45;70.74;101460.14;2785483;83;21061;-75
2021/10/24 16:16:30;;;;;;;20.55;12.35;;;;;;;9.27;71.37;101458.06;2803140;83;21075;-75
2021/10/24 16:20:32;;;;;;;37.58;21.80;;;;;;;9.17;71.82;101455.57;2793755;83;21427;-77
2021/10/24 16:24:34;;;;;;;20.45;10.82;;;;;;;9.10;72.03;101449.75;2803706;83;21114;-78
2021/10/24 16:28:36;;;;;;;11.93;8.05;;;;;;;8.96;72.69;101443.42;2800307;83;21091;-77
2021/10/24 16:32:39;;;;;;;18.75;9.80;;;;;;;8.82;73.26;101446.86;2835198;83;21106;-75
2021/10/24 16:36:41;;;;;;;14.55;7.92;;;;;;;8.73;73.62;101442.53;2793844;83;21166;-74
2021/10/24 16:40:42;;;;;;;14.38;8.00;;;;;;;8.60;74.19;101449.84;2794517;83;21175;-76
2021/10/24 16:44:44;;;;;;;14.58;8.63;;;;;;;8.46;74.60;101447.91;2778339;83;21050;-77
2021/10/24 16:48:46;;;;;;;18.40;10.03;;;;;;;8.40;74.73;101444.28;2803407;83;21074;-73
2021/10/24 16:52:48;;;;;;;29.10;14.07;;;;;;;8.26;75.24;101435.75;2806615;83;21062;-74
2021/10/24 16:56:50;;;;;;;46.63;27.13;;;;;;;8.15;75.38;101446.89;2800673;83;21038;-76
2021/10/24 17:00:53;;;;;;;55.03;37.50;;;;;;;8.07;75.60;101446.46;2811904;83;21114;-78
2021/10/24 17:04:54;;;;;;;56.20;34.23;;;;;;;7.91;76.02;101436.66;2829329;82;21066;-75
2021/10/24 17:08:56;;;;;;;44.67;28.95;;;;;;;7.79;76.45;101437.31;2832433;83;21082;-76
2021/10/24 17:12:58;;;;;;;45.83;27.80;;;;;;;7.74;76.64;101436.22;2830072;83;21070;-76
2021/10/24 17:17:00;;;;;;;38.28;23.80;;;;;;;7.69;76.58;101438.26;2814294;83;21073;-77
2021/10/24 17:21:04;;;;;;;25.20;11.90;;;;;;;7.78;75.86;101437.77;2798687;83;21087;-75
2021/10/24 17:25:06;;;;;;;26.15;11.78;;;;;;;7.74;76.13;101441.52;2785993;83;21019;-76
2021/10/24 17:29:08;;;;;;;13.40;9.70;;;;;;;7.70;76.18;101435.52;2818588;83;21073;-76
2021/10/24 17:33:09;;;;;;;18.55;9.58;;;;;;;7.52;77.25;101435.12;2801879;83;21003;-75
2021/10/24 17:37:12;;;;;;;18.32;9.85;;;;;;;7.41;77.49;101437.86;2814324;83;21006;-76
2021/10/24 17:41:14;;;;;;;22.95;12.37;;;;;;;7.33;77.99;101436.53;2797799;83;21027;-73
2021/10/24 17:45:16;;;;;;;24.32;13.58;;;;;;;7.30;77.80;101429.59;2851086;82;21104;-76
2021/10/24 17:49:17;;;;;;;20.72;12.60;;;;;;;7.19;78.13;101426.16;2801497;83;21074;-76
2021/10/24 17:53:19;;;;;;;14.33;10.25;;;;;;;7.10;78.62;101422.66;2785684;84;21075;-75
2021/10/24 17:57:21;;;;;;;19.35;11.73;;;;;;;6.89;79.63;101422.77;2818108;84;21075;-76
2021/10/24 18:01:22;;;;;;;29.23;18.23;;;;;;;6.77;80.25;101410.13;2775109;84;21079;-75
2021/10/24 18:05:24;;;;;;;55.15;38.33;;;;;;;6.66;80.57;101411.47;2835138;82;21089;-73
2021/10/24 18:09:26;;;;;;;65.10;42.38;;;;;;;6.54;81.14;101409.43;2792748;84;21566;-74
2021/10/24 18:13:28;;;;;;;33.38;17.70;;;;;;;6.47;81.63;101401.38;2787296;84;21035;-76
2021/10/24 18:17:30;;;;;;;18.95;12.73;;;;;;;6.43;81.87;101397.56;2787019;83;21035;-74
2021/10/24 18:21:33;;;;;;;16.97;12.00;;;;;;;6.48;81.95;101390.74;2799171;83;21448;-75
2021/10/24 18:25:35;;;;;;;24.70;14.87;;;;;;;6.43;82.12;101376.89;2803663;82;21077;-74
2021/10/24 18:29:37;;;;;;;31.97;16.90;;;;;;;6.56;82.02;101377.17;2775348;83;21060;-74
2021/10/24 18:33:39;;;;;;;33.65;15.95;;;;;;;6.63;81.64;101368.48;2817859;83;21090;-78
2021/10/24 18:37:40;;;;;;;24.50;15.98;;;;;;;6.63;81.35;101360.07;2790127;82;21079;-75
2021/10/24 18:41:42;;;;;;;23.40;12.73;;;;;;;6.65;81.06;101359.52;2808464;83;21102;-79
2021/10/24 18:45:46;;;;;;;22.42;13.03;;;;;;;6.67;80.55;101351.05;2743810;84;21055;-81
2021/10/24 18:49:48;;;;;;;28.80;18.37;;;;;;;6.66;80.23;101345.37;2775884;84;21083;-78
2021/10/24 18:53:50;;;;;;;18.30;11.95;;;;;;;6.54;80.24;101338.05;2759588;84;21221;-78